Search for airport 
image banner adimage banner adimage banner ad
image banner ad

VTSC - Narathiwat / Narathiwat Airport

Located in Narathiwat, Thailand

ICAO - VTSC, IATA - NAW

Data provided by Airmate  

General information

Coordinates: N6°31'24" E101°44'41"
Elevation is 18 feet MSL.
 
View others Airports in Narathiwat Province

Operational data

Special qualification required
Current time UTC:
Current local time:
Weather
METAR: VTSC 191000Z 06007KT 020V080 9999 SCT020 29/26 Q1009 NOSIG
TAF: TAF VTSC 191100Z 1912/2012 03005KT 9999 FEW020 TEMPO 2007/2012 VRB15G25KT 4000 TSRA FEW016CB SCT018 BKN100
View NOTAMs / SUP AIP / TFR affecting this airport [VIEW]
Communications frequencies: [VIEW]

Runways:

RWY identifierQFULength (ft)Width (ft)SurfaceLDA (ft)
0220°8202148ASP
20202°8202148

Airport contact information

Address: Narathiwat Thailand

Satellite view of VTSC